Saluda Terrace, South Carolina
Current Conditions -  °F | °C
As of 8:56 AM on Thursday 27 Nov 2014 (Local Time) from KCAE Reporting Station
Clear Clear  
Wind Chill: 41°   Ceiling: Unl
Heat Index: 48°   Visibility: 10mi
Dew Point: 31°   Wind: 18mph
Humidity: 52%   Direction: 270°W
Pressure: 30.1"   Gusts: 31mph
Location:  33.9973°N, 81.0998°W
Report Text: KCAE 271356Z 27016G27KT 10SM CLR 09/M01 A3010 RMK AO2 PK WND 28029/1327 SLP193 T00891006
Loading
Personal Weather Stations






























Interactive Weather Map New forecast layout! Learn more

10-Day Weather Forecast

Advertisements
Track Severe Weather on mobile